sensor_id;sensor_type;location;lat;lon;timestamp;temperature;humidity
56869;DHT22;42754;0.000;0.000;2023-04-01T00:01:11;10.10;99.90
56869;DHT22;42754;0.000;0.000;2023-04-01T00:03:39;10.10;99.90
56869;DHT22;42754;0.000;0.000;2023-04-01T00:06:05;10.10;99.90
56869;DHT22;42754;0.000;0.000;2023-04-01T00:08:30;10.10;99.90
56869;DHT22;42754;0.000;0.000;2023-04-01T00:10:56;10.10;99.90
56869;DHT22;42754;0.000;0.000;2023-04-01T00:13:22;10.10;99.90
56869;DHT22;42754;0.000;0.000;2023-04-01T00:15:50;10.10;99.90
56869;DHT22;42754;0.000;0.000;2023-04-01T00:18:15;10.10;99.90
56869;DHT22;42754;0.000;0.000;2023-04-01T00:20:44;10.10;99.90
56869;DHT22;42754;0.000;0.000;2023-04-01T00:23:10;10.10;99.90
56869;DHT22;42754;0.000;0.000;2023-04-01T00:25:36;10.10;99.90
56869;DHT22;42754;0.000;0.000;2023-04-01T00:28:01;10.10;99.90
56869;DHT22;42754;0.000;0.000;2023-04-01T00:30:27;10.10;99.90
56869;DHT22;42754;0.000;0.000;2023-04-01T00:32:53;10.10;99.90
56869;DHT22;42754;0.000;0.000;2023-04-01T00:35:19;10.10;99.90
56869;DHT22;42754;0.000;0.000;2023-04-01T00:37:44;10.10;99.90
56869;DHT22;42754;0.000;0.000;2023-04-01T00:40:21;10.10;99.90
56869;DHT22;42754;0.000;0.000;2023-04-01T00:42:47;10.10;99.90
56869;DHT22;42754;0.000;0.000;2023-04-01T00:45:27;10.10;99.90
56869;DHT22;42754;0.000;0.000;2023-04-01T00:47:52;10.10;99.90
56869;DHT22;42754;0.000;0.000;2023-04-01T00:50:18;10.10;99.90
56869;DHT22;42754;0.000;0.000;2023-04-01T00:52:44;10.10;99.90
56869;DHT22;42754;0.000;0.000;2023-04-01T00:55:10;10.10;99.90
56869;DHT22;42754;0.000;0.000;2023-04-01T00:57:36;10.10;99.90
56869;DHT22;42754;0.000;0.000;2023-04-01T01:00:04;10.10;99.90
56869;DHT22;42754;0.000;0.000;2023-04-01T01:02:32;10.10;99.90
56869;DHT22;42754;0.000;0.000;2023-04-01T01:04:58;10.10;99.90
56869;DHT22;42754;0.000;0.000;2023-04-01T01:12:24;10.10;99.90
56869;DHT22;42754;0.000;0.000;2023-04-01T01:17:42;10.10;99.90
56869;DHT22;42754;0.000;0.000;2023-04-01T01:29:04;10.10;99.90
56869;DHT22;42754;0.000;0.000;2023-04-01T01:31:25;10.10;99.90
56869;DHT22;42754;0.000;0.000;2023-04-01T01:34:03;10.10;99.90
56869;DHT22;42754;0.000;0.000;2023-04-01T01:36:33;10.10;99.90
56869;DHT22;42754;0.000;0.000;2023-04-01T01:39:00;10.10;99.90
56869;DHT22;42754;0.000;0.000;2023-04-01T01:41:26;10.10;99.90
56869;DHT22;42754;0.000;0.000;2023-04-01T01:43:52;10.10;99.90
56869;DHT22;42754;0.000;0.000;2023-04-01T01:46:19;10.10;99.90
56869;DHT22;42754;0.000;0.000;2023-04-01T01:48:46;10.10;99.90
56869;DHT22;42754;0.000;0.000;2023-04-01T01:51:12;10.10;99.90
56869;DHT22;42754;0.000;0.000;2023-04-01T01:53:38;10.10;99.90
56869;DHT22;42754;0.000;0.000;2023-04-01T01:56:04;10.10;99.90
56869;DHT22;42754;0.000;0.000;2023-04-01T01:58:30;10.10;99.90
56869;DHT22;42754;0.000;0.000;2023-04-01T02:01:01;10.10;99.90
56869;DHT22;42754;0.000;0.000;2023-04-01T02:03:29;10.10;99.90
56869;DHT22;42754;0.000;0.000;2023-04-01T02:05:56;10.10;99.90
56869;DHT22;42754;0.000;0.000;2023-04-01T02:08:26;10.10;99.90
56869;DHT22;42754;0.000;0.000;2023-04-01T02:11:00;10.20;99.90
56869;DHT22;42754;0.000;0.000;2023-04-01T02:13:30;10.20;99.90
56869;DHT22;42754;0.000;0.000;2023-04-01T02:15:59;10.10;99.90
56869;DHT22;42754;0.000;0.000;2023-04-01T02:18:26;10.10;99.90
56869;DHT22;42754;0.000;0.000;2023-04-01T02:20:53;10.10;99.90
56869;DHT22;42754;0.000;0.000;2023-04-01T02:23:20;10.20;99.90
56869;DHT22;42754;0.000;0.000;2023-04-01T02:25:46;10.10;99.90
56869;DHT22;42754;0.000;0.000;2023-04-01T02:28:12;10.10;99.90
56869;DHT22;42754;0.000;0.000;2023-04-01T02:30:39;10.10;99.90
56869;DHT22;42754;0.000;0.000;2023-04-01T02:33:06;10.10;99.90
56869;DHT22;42754;0.000;0.000;2023-04-01T02:35:33;10.10;99.90
56869;DHT22;42754;0.000;0.000;2023-04-01T02:37:59;10.10;99.90
56869;DHT22;42754;0.000;0.000;2023-04-01T02:40:25;10.10;99.90
56869;DHT22;42754;0.000;0.000;2023-04-01T02:42:51;10.00;99.90
56869;DHT22;42754;0.000;0.000;2023-04-01T02:45:17;10.00;99.90
56869;DHT22;42754;0.000;0.000;2023-04-01T02:47:42;10.00;99.90
56869;DHT22;42754;0.000;0.000;2023-04-01T02:50:08;10.00;99.90
56869;DHT22;42754;0.000;0.000;2023-04-01T02:52:34;10.00;99.90
56869;DHT22;42754;0.000;0.000;2023-04-01T02:55:00;10.00;99.90
56869;DHT22;42754;0.000;0.000;2023-04-01T02:57:25;10.00;99.90
56869;DHT22;42754;0.000;0.000;2023-04-01T02:59:51;10.00;99.90
56869;DHT22;42754;0.000;0.000;2023-04-01T03:02:17;10.00;99.90
56869;DHT22;42754;0.000;0.000;2023-04-01T03:04:42;10.00;99.90
56869;DHT22;42754;0.000;0.000;2023-04-01T03:07:09;10.00;99.90
56869;DHT22;42754;0.000;0.000;2023-04-01T03:09:37;10.00;99.90
56869;DHT22;42754;0.000;0.000;2023-04-01T03:12:03;10.00;99.90
56869;DHT22;42754;0.000;0.000;2023-04-01T03:14:29;10.00;99.90
56869;DHT22;42754;0.000;0.000;2023-04-01T03:16:54;10.00;99.90
56869;DHT22;42754;0.000;0.000;2023-04-01T03:19:20;9.90;99.90
56869;DHT22;42754;0.000;0.000;2023-04-01T03:21:46;10.00;99.90
56869;DHT22;42754;0.000;0.000;2023-04-01T03:24:11;10.00;99.90
56869;DHT22;42754;0.000;0.000;2023-04-01T03:26:37;9.90;99.90
56869;DHT22;42754;0.000;0.000;2023-04-01T03:29:02;10.00;99.90
56869;DHT22;42754;0.000;0.000;2023-04-01T03:31:30;9.90;99.90
56869;DHT22;42754;0.000;0.000;2023-04-01T03:33:55;10.00;99.90
56869;DHT22;42754;0.000;0.000;2023-04-01T03:36:21;9.90;99.90
56869;DHT22;42754;0.000;0.000;2023-04-01T03:38:47;9.90;99.90
56869;DHT22;42754;0.000;0.000;2023-04-01T03:41:13;9.90;99.90
56869;DHT22;42754;0.000;0.000;2023-04-01T03:43:39;10.00;99.90
56869;DHT22;42754;0.000;0.000;2023-04-01T03:46:05;9.90;99.90
56869;DHT22;42754;0.000;0.000;2023-04-01T03:48:30;9.90;99.90
56869;DHT22;42754;0.000;0.000;2023-04-01T03:50:56;9.90;99.90
56869;DHT22;42754;0.000;0.000;2023-04-01T03:53:21;9.90;99.90
56869;DHT22;42754;0.000;0.000;2023-04-01T03:55:48;9.90;99.90
56869;DHT22;42754;0.000;0.000;2023-04-01T03:58:16;9.90;99.90
56869;DHT22;42754;0.000;0.000;2023-04-01T04:00:42;9.90;99.90
56869;DHT22;42754;0.000;0.000;2023-04-01T04:03:07;9.90;99.90
56869;DHT22;42754;0.000;0.000;2023-04-01T04:05:33;9.90;99.90
56869;DHT22;42754;0.000;0.000;2023-04-01T04:07:58;9.90;99.90
56869;DHT22;42754;0.000;0.000;2023-04-01T04:10:24;9.90;99.90
56869;DHT22;42754;0.000;0.000;2023-04-01T04:12:50;9.90;99.90
56869;DHT22;42754;0.000;0.000;2023-04-01T04:15:16;9.80;99.90
56869;DHT22;42754;0.000;0.000;2023-04-01T04:17:41;9.80;99.90
56869;DHT22;42754;0.000;0.000;2023-04-01T04:20:07;9.80;99.90
56869;DHT22;42754;0.000;0.000;2023-04-01T04:22:33;9.80;99.90
56869;DHT22;42754;0.000;0.000;2023-04-01T04:24:59;9.80;99.90
56869;DHT22;42754;0.000;0.000;2023-04-01T04:27:25;9.80;99.90
56869;DHT22;42754;0.000;0.000;2023-04-01T04:29:50;9.80;99.90
56869;DHT22;42754;0.000;0.000;2023-04-01T04:32:17;9.80;99.90
56869;DHT22;42754;0.000;0.000;2023-04-01T04:34:42;9.80;99.90
56869;DHT22;42754;0.000;0.000;2023-04-01T04:37:08;9.80;99.90
56869;DHT22;42754;0.000;0.000;2023-04-01T04:39:33;9.80;99.90
56869;DHT22;42754;0.000;0.000;2023-04-01T04:42:00;9.80;99.90
56869;DHT22;42754;0.000;0.000;2023-04-01T04:44:26;9.80;99.90
56869;DHT22;42754;0.000;0.000;2023-04-01T04:46:51;9.80;99.90
56869;DHT22;42754;0.000;0.000;2023-04-01T04:49:17;9.80;99.90
56869;DHT22;42754;0.000;0.000;2023-04-01T04:51:43;9.80;99.90
56869;DHT22;42754;0.000;0.000;2023-04-01T04:54:08;9.80;99.90
56869;DHT22;42754;0.000;0.000;2023-04-01T04:56:34;9.80;99.90
56869;DHT22;42754;0.000;0.000;2023-04-01T04:59:01;9.80;99.90
56869;DHT22;42754;0.000;0.000;2023-04-01T05:01:26;9.80;99.90
56869;DHT22;42754;0.000;0.000;2023-04-01T05:03:52;9.80;99.90
56869;DHT22;42754;0.000;0.000;2023-04-01T05:06:18;9.80;99.90
56869;DHT22;42754;0.000;0.000;2023-04-01T05:08:44;9.80;99.90
56869;DHT22;42754;0.000;0.000;2023-04-01T05:11:14;9.80;99.90
56869;DHT22;42754;0.000;0.000;2023-04-01T05:13:40;9.80;99.90
56869;DHT22;42754;0.000;0.000;2023-04-01T05:16:12;9.80;99.90
56869;DHT22;42754;0.000;0.000;2023-04-01T05:18:38;9.80;99.90
56869;DHT22;42754;0.000;0.000;2023-04-01T05:21:04;9.80;99.90
56869;DHT22;42754;0.000;0.000;2023-04-01T05:23:30;9.80;99.90
56869;DHT22;42754;0.000;0.000;2023-04-01T05:25:56;9.80;99.90
56869;DHT22;42754;0.000;0.000;2023-04-01T05:28:22;9.80;99.90
56869;DHT22;42754;0.000;0.000;2023-04-01T05:30:47;9.80;99.90
56869;DHT22;42754;0.000;0.000;2023-04-01T05:33:13;9.80;99.90
56869;DHT22;42754;0.000;0.000;2023-04-01T05:35:39;9.80;99.90
56869;DHT22;42754;0.000;0.000;2023-04-01T05:38:05;9.80;99.90
56869;DHT22;42754;0.000;0.000;2023-04-01T05:40:31;9.80;99.90
56869;DHT22;42754;0.000;0.000;2023-04-01T05:42:56;9.80;99.90
56869;DHT22;42754;0.000;0.000;2023-04-01T05:45:22;9.80;99.90
56869;DHT22;42754;0.000;0.000;2023-04-01T05:50:16;9.80;99.90
56869;DHT22;42754;0.000;0.000;2023-04-01T05:52:42;9.80;99.90
56869;DHT22;42754;0.000;0.000;2023-04-01T05:55:08;9.80;99.90
56869;DHT22;42754;0.000;0.000;2023-04-01T05:57:34;9.80;99.90
56869;DHT22;42754;0.000;0.000;2023-04-01T06:00:00;9.80;99.90
56869;DHT22;42754;0.000;0.000;2023-04-01T06:02:26;9.80;99.90
56869;DHT22;42754;0.000;0.000;2023-04-01T06:04:54;9.80;99.90
56869;DHT22;42754;0.000;0.000;2023-04-01T06:07:26;9.80;99.90
56869;DHT22;42754;0.000;0.000;2023-04-01T06:09:52;9.80;99.90
56869;DHT22;42754;0.000;0.000;2023-04-01T06:12:26;9.90;99.90
56869;DHT22;42754;0.000;0.000;2023-04-01T06:15:02;9.90;99.90
56869;DHT22;42754;0.000;0.000;2023-04-01T06:33:48;9.90;99.90
56869;DHT22;42754;0.000;0.000;2023-04-01T06:41:26;10.00;99.90
56869;DHT22;42754;0.000;0.000;2023-04-01T06:44:14;9.90;99.90
56869;DHT22;42754;0.000;0.000;2023-04-01T06:46:50;9.90;99.90
56869;DHT22;42754;0.000;0.000;2023-04-01T06:49:41;10.00;99.90
56869;DHT22;42754;0.000;0.000;2023-04-01T06:54:39;10.10;99.90
56869;DHT22;42754;0.000;0.000;2023-04-01T06:57:41;10.10;99.90
56869;DHT22;42754;0.000;0.000;2023-04-01T06:59:59;10.20;99.90
56869;DHT22;42754;0.000;0.000;2023-04-01T07:02:32;10.30;99.90
56869;DHT22;42754;0.000;0.000;2023-04-01T07:04:59;10.30;99.90
56869;DHT22;42754;0.000;0.000;2023-04-01T07:07:31;10.40;99.90
56869;DHT22;42754;0.000;0.000;2023-04-01T07:09:58;10.50;99.90
56869;DHT22;42754;0.000;0.000;2023-04-01T07:15:02;10.60;99.90
56869;DHT22;42754;0.000;0.000;2023-04-01T07:17:30;10.60;99.90
56869;DHT22;42754;0.000;0.000;2023-04-01T07:19:59;10.60;99.90
56869;DHT22;42754;0.000;0.000;2023-04-01T07:22:34;10.60;99.90
56869;DHT22;42754;0.000;0.000;2023-04-01T07:25:02;10.50;99.90
56869;DHT22;42754;0.000;0.000;2023-04-01T07:27:28;10.60;99.90
56869;DHT22;42754;0.000;0.000;2023-04-01T07:29:55;10.50;99.90
56869;DHT22;42754;0.000;0.000;2023-04-01T07:32:30;10.50;99.90
56869;DHT22;42754;0.000;0.000;2023-04-01T07:50:28;10.50;99.90
56869;DHT22;42754;0.000;0.000;2023-04-01T07:52:57;10.50;99.90
56869;DHT22;42754;0.000;0.000;2023-04-01T07:55:46;10.50;99.90
56869;DHT22;42754;0.000;0.000;2023-04-01T08:03:31;10.50;99.90
56869;DHT22;42754;0.000;0.000;2023-04-01T08:12:00;10.50;99.90
56869;DHT22;42754;0.000;0.000;2023-04-01T08:19:52;10.70;99.90
56869;DHT22;42754;0.000;0.000;2023-04-01T08:22:23;10.70;99.90
56869;DHT22;42754;0.000;0.000;2023-04-01T08:24:52;10.80;99.90
56869;DHT22;42754;0.000;0.000;2023-04-01T08:29:55;11.00;99.90
56869;DHT22;42754;0.000;0.000;2023-04-01T08:32:25;11.10;99.90
56869;DHT22;42754;0.000;0.000;2023-04-01T08:34:55;11.20;99.90
56869;DHT22;42754;0.000;0.000;2023-04-01T08:37:23;11.30;99.90
56869;DHT22;42754;0.000;0.000;2023-04-01T08:39:51;11.40;99.90
56869;DHT22;42754;0.000;0.000;2023-04-01T08:45:05;11.60;99.90
56869;DHT22;42754;0.000;0.000;2023-04-01T08:47:49;11.70;99.90
56869;DHT22;42754;0.000;0.000;2023-04-01T08:52:52;11.80;99.90
56869;DHT22;42754;0.000;0.000;2023-04-01T09:01:24;11.60;99.90
56869;DHT22;42754;0.000;0.000;2023-04-01T09:06:40;11.60;99.90
56869;DHT22;42754;0.000;0.000;2023-04-01T09:17:17;12.20;99.90
56869;DHT22;42754;0.000;0.000;2023-04-01T10:13:43;12.60;99.90
56869;DHT22;42754;0.000;0.000;2023-04-01T10:18:44;13.00;99.90
56869;DHT22;42754;0.000;0.000;2023-04-01T10:26:20;13.30;99.90
56869;DHT22;42754;0.000;0.000;2023-04-01T10:42:34;13.50;99.90
56869;DHT22;42754;0.000;0.000;2023-04-01T11:16:23;12.50;99.90
56869;DHT22;42754;0.000;0.000;2023-04-01T11:26:33;12.80;99.90
56869;DHT22;42754;0.000;0.000;2023-04-01T11:33:54;13.00;99.90
56869;DHT22;42754;0.000;0.000;2023-04-01T11:39:17;13.00;99.90
56869;DHT22;42754;0.000;0.000;2023-04-01T11:44:22;13.00;99.90
56869;DHT22;42754;0.000;0.000;2023-04-01T11:52:14;12.90;99.90
56869;DHT22;42754;0.000;0.000;2023-04-01T11:59:47;12.90;99.90
56869;DHT22;42754;0.000;0.000;2023-04-01T12:02:23;13.00;99.90
56869;DHT22;42754;0.000;0.000;2023-04-01T12:04:54;12.90;99.90
56869;DHT22;42754;0.000;0.000;2023-04-01T12:10:12;12.90;99.90
56869;DHT22;42754;0.000;0.000;2023-04-01T12:17:56;12.70;99.90
56869;DHT22;42754;0.000;0.000;2023-04-01T12:30:54;12.70;99.90
56869;DHT22;42754;0.000;0.000;2023-04-01T12:35:51;12.60;99.90
56869;DHT22;42754;0.000;0.000;2023-04-01T12:40:51;12.50;99.90
56869;DHT22;42754;0.000;0.000;2023-04-01T12:43:25;12.50;99.90
56869;DHT22;42754;0.000;0.000;2023-04-01T12:48:51;12.50;99.90
56869;DHT22;42754;0.000;0.000;2023-04-01T13:01:43;12.70;99.90
56869;DHT22;42754;0.000;0.000;2023-04-01T13:09:32;12.70;99.90
56869;DHT22;42754;0.000;0.000;2023-04-01T13:20:16;12.40;99.90
56869;DHT22;42754;0.000;0.000;2023-04-01T13:30:39;12.10;99.90
56869;DHT22;42754;0.000;0.000;2023-04-01T13:35:49;12.10;99.90
56869;DHT22;42754;0.000;0.000;2023-04-01T13:41:11;12.20;99.90
56869;DHT22;42754;0.000;0.000;2023-04-01T13:43:42;12.10;99.90
56869;DHT22;42754;0.000;0.000;2023-04-01T14:12:28;12.30;99.90
56869;DHT22;42754;0.000;0.000;2023-04-01T14:46:25;12.80;99.90
56869;DHT22;42754;0.000;0.000;2023-04-01T14:49:02;12.80;99.90
56869;DHT22;42754;0.000;0.000;2023-04-01T14:51:33;12.80;99.90
56869;DHT22;42754;0.000;0.000;2023-04-01T14:54:02;12.70;99.90
56869;DHT22;42754;0.000;0.000;2023-04-01T14:56:47;12.70;99.90
56869;DHT22;42754;0.000;0.000;2023-04-01T14:59:25;12.70;99.90
56869;DHT22;42754;0.000;0.000;2023-04-01T15:22:43;12.50;99.90
56869;DHT22;42754;0.000;0.000;2023-04-01T15:25:25;12.50;99.90
56869;DHT22;42754;0.000;0.000;2023-04-01T15:41:34;12.20;99.90
56869;DHT22;42754;0.000;0.000;2023-04-01T15:44:01;12.00;99.90
56869;DHT22;42754;0.000;0.000;2023-04-01T15:54:17;12.20;99.90
56869;DHT22;42754;0.000;0.000;2023-04-01T15:56:51;12.20;99.90
56869;DHT22;42754;0.000;0.000;2023-04-01T15:59:22;12.10;99.90
56869;DHT22;42754;0.000;0.000;2023-04-01T16:01:59;12.10;99.90
56869;DHT22;42754;0.000;0.000;2023-04-01T16:20:45;11.80;99.90
56869;DHT22;42754;0.000;0.000;2023-04-01T16:25:51;11.60;99.90
56869;DHT22;42754;0.000;0.000;2023-04-01T16:30:48;11.50;99.90
56869;DHT22;42754;0.000;0.000;2023-04-01T16:33:18;11.40;99.90
56869;DHT22;42754;0.000;0.000;2023-04-01T16:38:25;11.50;99.90
56869;DHT22;42754;0.000;0.000;2023-04-01T16:48:36;11.30;99.90
56869;DHT22;42754;0.000;0.000;2023-04-01T16:51:12;11.20;99.90
56869;DHT22;42754;0.000;0.000;2023-04-01T16:53:41;11.20;99.90
56869;DHT22;42754;0.000;0.000;2023-04-01T16:56:14;11.20;99.90
56869;DHT22;42754;0.000;0.000;2023-04-01T16:58:43;11.10;99.90
56869;DHT22;42754;0.000;0.000;2023-04-01T17:01:16;11.00;99.90
56869;DHT22;42754;0.000;0.000;2023-04-01T17:03:46;11.00;99.90
56869;DHT22;42754;0.000;0.000;2023-04-01T17:11:24;11.00;99.90
56869;DHT22;42754;0.000;0.000;2023-04-01T17:14:06;11.00;99.90
56869;DHT22;42754;0.000;0.000;2023-04-01T17:17:18;10.90;99.90
56869;DHT22;42754;0.000;0.000;2023-04-01T17:19:45;10.90;99.90
56869;DHT22;42754;0.000;0.000;2023-04-01T17:27:35;10.80;99.90
56869;DHT22;42754;0.000;0.000;2023-04-01T17:32:45;10.80;99.90
56869;DHT22;42754;0.000;0.000;2023-04-01T17:35:28;10.70;99.90
56869;DHT22;42754;0.000;0.000;2023-04-01T17:45:49;10.50;99.90
56869;DHT22;42754;0.000;0.000;2023-04-01T17:51:03;10.40;99.90
56869;DHT22;42754;0.000;0.000;2023-04-01T18:01:39;10.30;99.90
56869;DHT22;42754;0.000;0.000;2023-04-01T18:16:45;10.10;99.90
56869;DHT22;42754;0.000;0.000;2023-04-01T18:19:20;10.10;99.90
56869;DHT22;42754;0.000;0.000;2023-04-01T18:21:50;10.10;99.90
56869;DHT22;42754;0.000;0.000;2023-04-01T18:39:42;9.80;99.90
56869;DHT22;42754;0.000;0.000;2023-04-01T18:44:55;9.80;99.90
56869;DHT22;42754;0.000;0.000;2023-04-01T18:52:43;9.70;99.90
56869;DHT22;42754;0.000;0.000;2023-04-01T18:57:50;9.70;99.90
56869;DHT22;42754;0.000;0.000;2023-04-01T19:00:24;9.70;99.90
56869;DHT22;42754;0.000;0.000;2023-04-01T19:03:02;9.70;99.90
56869;DHT22;42754;0.000;0.000;2023-04-01T19:05:33;9.70;99.90
56869;DHT22;42754;0.000;0.000;2023-04-01T19:08:41;9.70;99.90
56869;DHT22;42754;0.000;0.000;2023-04-01T19:10:52;9.60;99.90
56869;DHT22;42754;0.000;0.000;2023-04-01T19:21:26;9.40;99.90
56869;DHT22;42754;0.000;0.000;2023-04-01T19:24:14;9.40;99.90
56869;DHT22;42754;0.000;0.000;2023-04-01T19:26:45;9.30;99.90
56869;DHT22;42754;0.000;0.000;2023-04-01T19:37:32;9.20;99.90
56869;DHT22;42754;0.000;0.000;2023-04-01T19:40:02;9.20;99.90
56869;DHT22;42754;0.000;0.000;2023-04-01T19:42:35;9.20;99.90
56869;DHT22;42754;0.000;0.000;2023-04-01T19:47:44;9.10;99.90
56869;DHT22;42754;0.000;0.000;2023-04-01T19:52:49;9.10;99.90
56869;DHT22;42754;0.000;0.000;2023-04-01T19:58:23;9.00;99.90
56869;DHT22;42754;0.000;0.000;2023-04-01T20:00:56;9.00;99.90
56869;DHT22;42754;0.000;0.000;2023-04-01T20:13:48;8.80;99.90
56869;DHT22;42754;0.000;0.000;2023-04-01T20:16:17;8.80;99.90
56869;DHT22;42754;0.000;0.000;2023-04-01T20:18:55;8.80;99.90
56869;DHT22;42754;0.000;0.000;2023-04-01T20:21:35;8.80;99.90
56869;DHT22;42754;0.000;0.000;2023-04-01T20:26:34;8.80;99.90
56869;DHT22;42754;0.000;0.000;2023-04-01T20:42:05;8.70;99.90
56869;DHT22;42754;0.000;0.000;2023-04-01T20:44:59;8.70;99.90
56869;DHT22;42754;0.000;0.000;2023-04-01T20:50:28;8.60;99.90
56869;DHT22;42754;0.000;0.000;2023-04-01T21:00:54;8.40;99.90
56869;DHT22;42754;0.000;0.000;2023-04-01T21:03:29;8.50;99.90
56869;DHT22;42754;0.000;0.000;2023-04-01T21:08:38;8.40;99.90
56869;DHT22;42754;0.000;0.000;2023-04-01T21:52:21;8.10;99.90
56869;DHT22;42754;0.000;0.000;2023-04-01T22:05:17;7.90;99.90
56869;DHT22;42754;0.000;0.000;2023-04-01T22:08:20;7.90;99.90
56869;DHT22;42754;0.000;0.000;2023-04-01T22:21:00;7.80;99.90
56869;DHT22;42754;0.000;0.000;2023-04-01T22:23:37;7.80;99.90
56869;DHT22;42754;0.000;0.000;2023-04-01T22:28:45;7.80;99.90
56869;DHT22;42754;0.000;0.000;2023-04-01T22:31:14;7.80;99.90
56869;DHT22;42754;0.000;0.000;2023-04-01T22:33:53;7.70;99.90
56869;DHT22;42754;0.000;0.000;2023-04-01T22:41:33;7.60;99.90
56869;DHT22;42754;0.000;0.000;2023-04-01T22:44:02;7.60;99.90
56869;DHT22;42754;0.000;0.000;2023-04-01T22:49:12;7.50;99.90
56869;DHT22;42754;0.000;0.000;2023-04-01T22:52:03;7.50;99.90
56869;DHT22;42754;0.000;0.000;2023-04-01T22:57:32;7.50;99.90
56869;DHT22;42754;0.000;0.000;2023-04-01T23:02:35;7.50;99.90
56869;DHT22;42754;0.000;0.000;2023-04-01T23:05:03;7.40;99.90
56869;DHT22;42754;0.000;0.000;2023-04-01T23:10:25;7.50;99.90
56869;DHT22;42754;0.000;0.000;2023-04-01T23:12:51;7.50;99.90
56869;DHT22;42754;0.000;0.000;2023-04-01T23:15:19;7.40;99.90
56869;DHT22;42754;0.000;0.000;2023-04-01T23:28:58;7.20;99.90
56869;DHT22;42754;0.000;0.000;2023-04-01T23:33:52;7.30;99.90
56869;DHT22;42754;0.000;0.000;2023-04-01T23:36:18;7.20;99.90
56869;DHT22;42754;0.000;0.000;2023-04-01T23:38:46;7.20;99.90
56869;DHT22;42754;0.000;0.000;2023-04-01T23:41:20;7.20;99.90
56869;DHT22;42754;0.000;0.000;2023-04-01T23:43:49;7.10;99.90
56869;DHT22;42754;0.000;0.000;2023-04-01T23:46:19;7.10;99.90
56869;DHT22;42754;0.000;0.000;2023-04-01T23:48:45;7.10;99.90
56869;DHT22;42754;0.000;0.000;2023-04-01T23:53:44;7.10;99.90
56869;DHT22;42754;0.000;0.000;2023-04-01T23:56:11;7.00;99.90
56869;DHT22;42754;0.000;0.000;2023-04-01T23:58:42;7.10;99.90
